< Typhoon 195918 1959 Season Typhoon 195920 >
Typhoon 195919 (DINAH)
General InformationTrack Information on Google Maps || Disaster Info.ResourceGoogle EarthGE AnimationAtom FeedGeoJSON
Detalied Best Track (Time Zone = UTC)
Year Month Day Hour Lat. Long. Pressure (hPa) Wind (kt) Class Image Chart
1959 10 12 18 7.0 168.0 1008 0 2 -- Chart
1959 10 13 00 7.0 166.0 1008 0 2 -- Chart
1959 10 13 06 7.5 164.5 1006 0 2 -- Chart
1959 10 13 12 8.0 163.0 1008 0 2 -- Chart
1959 10 13 18 8.5 161.5 1006 0 2 -- Chart
1959 10 14 00 8.8 160.0 1006 0 2 -- Chart
1959 10 14 06 9.0 158.5 1004 0 2 -- Chart
1959 10 14 12 9.3 157.0 1006 0 2 -- Chart
1959 10 14 18 9.5 155.5 1004 0 2 -- Chart
1959 10 15 00 9.7 154.2 1000 0 9 -- Chart
1959 10 15 06 9.9 152.9 996 0 9 -- Chart
1959 10 15 12 10.0 151.5 990 0 9 -- Chart
1959 10 15 18 10.1 149.8 985 0 9 -- Chart
1959 10 16 00 10.6 147.6 980 0 9 -- Chart
1959 10 16 06 11.0 145.6 970 0 9 -- Chart
1959 10 16 12 11.7 143.7 960 0 9 -- Chart
1959 10 16 18 12.3 141.8 950 0 9 -- Chart
1959 10 17 00 12.9 140.3 940 0 9 -- Chart
1959 10 17 06 13.3 139.0 940 0 9 -- Chart
1959 10 17 12 13.7 137.3 940 0 9 -- Chart
1959 10 17 18 14.1 136.2 940 0 9 -- Chart
1959 10 18 00 14.7 135.5 945 0 9 -- Chart
1959 10 18 06 15.3 135.2 945 0 9 -- Chart
1959 10 18 12 16.1 134.9 945 0 9 -- Chart
1959 10 18 18 16.8 134.7 940 0 9 -- Chart
1959 10 19 00 18.0 134.6 940 0 9 -- Chart
1959 10 19 06 18.9 134.8 940 0 9 -- Chart
1959 10 19 12 19.8 134.9 935 0 9 -- Chart
1959 10 19 18 20.8 135.0 925 0 9 -- Chart
1959 10 20 00 21.6 135.2 915 0 9 -- Chart
1959 10 20 06 23.5 135.3 915 0 9 -- Chart
1959 10 20 12 24.5 135.3 920 0 9 -- Chart
1959 10 20 18 26.1 135.6 925 0 9 -- Chart
1959 10 21 00 28.6 137.8 935 0 9 -- Chart
1959 10 21 06 30.8 139.8 945 0 9 -- Chart
1959 10 21 12 32.5 142.4 955 0 9 -- Chart
1959 10 21 18 34.5 145.2 970 0 6 -- Chart
1959 10 22 00 36.0 147.8 980 0 6 -- Chart
1959 10 22 06 37.7 152.0 980 0 6 -- Chart
1959 10 22 12 38.9 156.1 980 0 6 -- Chart
1959 10 22 18 40.0 160.0 980 0 6 -- Chart
1959 10 23 00 41.0 165.0 974 0 6 -- Chart
1959 10 23 06 42.0 169.5 972 0 6 -- Chart
1959 10 23 12 42.8 174.0 972 0 6 -- Chart
1959 10 23 18 43.5 178.3 972 0 6 -- Chart
1959 10 24 00 44.0 182.7 970 0 6 -- Chart
Japan Meteorological Agency Best Track Data | Correction Date : 1991-07-16
< Typhoon 195918 1959 Season Typhoon 195920 >

Help